Time;durP1;ratioP1;P1;durP2;ratioP2;P2;SDS_P1;SDS_P2;PMS_P1;PMS_P2;Temp;Humidity;BMP_temperature;BMP_pressure;BME280_temperature;BME280_humidity;BME280_pressure;Samples;Min_cycle;Max_cycle;Signal;HPM_P1;HPM_P2
2024/01/10 00:00:52;;;;;;;34.00;17.55;;;-1.60;56.10;;;;;;5013460;28;20413;-81
2024/01/10 00:03:26;;;;;;;33.40;17.17;;;-1.60;56.10;;;;;;5008009;28;20243;-80
2024/01/10 00:06:00;;;;;;;32.83;16.02;;;-1.60;56.20;;;;;;5007521;28;20277;-80
2024/01/10 00:08:32;;;;;;;34.67;17.58;;;-1.70;56.20;;;;;;5019035;28;20253;-80
2024/01/10 00:11:02;;;;;;;32.85;17.35;;;-1.70;56.40;;;;;;5006156;28;20220;-80
2024/01/10 00:13:33;;;;;;;31.98;18.88;;;-1.70;56.40;;;;;;5019179;28;20556;-80
2024/01/10 00:16:02;;;;;;;34.13;18.33;;;-1.70;56.40;;;;;;5029423;28;20216;-80
2024/01/10 00:18:31;;;;;;;37.72;19.20;;;-1.70;56.50;;;;;;5018894;28;20198;-80
2024/01/10 00:20:59;;;;;;;34.33;19.40;;;-1.70;56.60;;;;;;5016270;28;20292;-80
2024/01/10 00:23:28;;;;;;;40.60;21.02;;;-1.70;56.60;;;;;;5015956;28;20297;-80
2024/01/10 00:26:00;;;;;;;35.20;20.52;;;-1.70;56.70;;;;;;5013028;28;20234;-80
2024/01/10 00:28:32;;;;;;;38.35;19.40;;;-1.70;56.70;;;;;;5041550;28;20209;-79
2024/01/10 00:31:02;;;;;;;37.17;19.23;;;-1.70;56.70;;;;;;5028625;28;20240;-80
2024/01/10 00:33:34;;;;;;;31.13;16.80;;;-1.70;56.70;;;;;;5010795;28;20692;-80
2024/01/10 00:36:02;;;;;;;34.63;17.23;;;-1.70;56.80;;;;;;5009311;28;20192;-80
2024/01/10 00:38:32;;;;;;;38.63;17.83;;;-1.70;56.80;;;;;;5008809;28;20208;-80
2024/01/10 00:41:00;;;;;;;31.58;18.70;;;-1.70;56.80;;;;;;5016961;28;20224;-80
2024/01/10 00:43:30;;;;;;;33.75;18.27;;;-1.80;56.90;;;;;;5010659;28;20206;-80
2024/01/10 00:46:00;;;;;;;36.25;18.25;;;-1.80;56.90;;;;;;5013541;28;20774;-79
2024/01/10 00:48:33;;;;;;;36.17;17.00;;;-1.80;56.90;;;;;;5013352;28;20220;-80
2024/01/10 00:51:08;;;;;;;36.33;18.23;;;-1.80;57.00;;;;;;5025968;28;20221;-80
2024/01/10 00:53:42;;;;;;;39.10;19.73;;;-1.80;57.00;;;;;;5012823;28;20203;-80
2024/01/10 00:56:13;;;;;;;39.05;19.20;;;-1.80;57.00;;;;;;5019627;28;20209;-80
2024/01/10 00:58:43;;;;;;;44.05;19.58;;;-1.80;57.00;;;;;;5013468;28;20248;-80
2024/01/10 01:01:14;;;;;;;39.58;20.27;;;-1.80;57.00;;;;;;5012963;28;20313;-80
2024/01/10 01:03:44;;;;;;;39.58;19.73;;;-1.80;56.90;;;;;;5019918;28;20295;-80
2024/01/10 01:06:12;;;;;;;48.75;22.92;;;-1.90;56.80;;;;;;5012782;28;20722;-80
2024/01/10 01:08:43;;;;;;;41.80;21.23;;;-1.90;56.80;;;;;;5019655;28;20213;-80
2024/01/10 01:11:14;;;;;;;38.58;21.92;;;-2.00;56.80;;;;;;5021895;28;20591;-79
2024/01/10 01:13:42;;;;;;;42.08;23.08;;;-2.10;56.90;;;;;;5014557;28;20217;-80
2024/01/10 01:16:11;;;;;;;42.15;22.55;;;-2.20;56.90;;;;;;5012350;28;20206;-80
2024/01/10 01:18:39;;;;;;;39.30;22.75;;;-2.20;57.10;;;;;;5009490;28;20216;-80
2024/01/10 01:21:10;;;;;;;40.90;22.35;;;-2.20;57.20;;;;;;5010280;28;20202;-80
2024/01/10 01:23:38;;;;;;;40.63;20.75;;;-2.20;57.30;;;;;;5013031;28;20217;-80
2024/01/10 01:26:12;;;;;;;40.42;19.50;;;-2.20;57.40;;;;;;5009261;28;20205;-79
2024/01/10 01:28:46;;;;;;;37.80;20.20;;;-2.10;57.50;;;;;;5015797;28;20265;-80
2024/01/10 01:31:16;;;;;;;35.83;19.88;;;-2.10;57.60;;;;;;5006173;28;20758;-78
2024/01/10 01:33:45;;;;;;;35.35;19.85;;;-2.10;57.60;;;;;;4994903;28;20198;-81
2024/01/10 01:36:15;;;;;;;38.38;19.65;;;-2.10;57.60;;;;;;4994431;28;20272;-81
2024/01/10 01:38:45;;;;;;;38.53;17.92;;;-2.10;57.60;;;;;;5000807;28;20591;-81
2024/01/10 01:41:14;;;;;;;39.90;19.92;;;-2.10;57.60;;;;;;5004689;28;20206;-80
2024/01/10 01:43:50;;;;;;;34.15;18.70;;;-2.10;57.70;;;;;;4996229;28;20212;-81
2024/01/10 01:46:19;;;;;;;34.55;17.80;;;-2.10;57.80;;;;;;4998338;28;20312;-81
2024/01/10 01:48:49;;;;;;;35.35;19.73;;;-2.10;57.80;;;;;;4997516;28;20237;-82
2024/01/10 01:51:22;;;;;;;35.90;18.90;;;-2.10;57.90;;;;;;4994109;28;20631;-78
2024/01/10 01:53:53;;;;;;;35.50;17.60;;;-2.10;57.90;;;;;;4996220;28;20221;-80
2024/01/10 01:56:24;;;;;;;41.78;19.48;;;-2.10;57.90;;;;;;4997205;28;20734;-80
2024/01/10 01:58:53;;;;;;;33.55;18.67;;;-2.10;58.00;;;;;;4997333;28;20268;-80
2024/01/10 02:01:28;;;;;;;34.22;19.42;;;-2.10;58.00;;;;;;4998756;28;20221;-80
2024/01/10 02:03:58;;;;;;;31.38;18.70;;;-2.10;58.00;;;;;;5008071;28;20235;-81
2024/01/10 02:06:29;;;;;;;33.05;16.88;;;-2.10;57.90;;;;;;5014525;28;20209;-81
2024/01/10 02:08:59;;;;;;;35.58;18.30;;;-2.20;57.80;;;;;;5018006;28;20202;-81
2024/01/10 02:11:28;;;;;;;39.58;17.83;;;-2.20;57.90;;;;;;5016998;28;20300;-80
2024/01/10 02:13:57;;;;;;;36.75;18.00;;;-2.20;57.90;;;;;;5014608;28;20210;-80
2024/01/10 02:16:26;;;;;;;39.63;18.85;;;-2.20;58.00;;;;;;5016580;28;20244;-80
2024/01/10 02:18:55;;;;;;;34.75;16.30;;;-2.20;58.10;;;;;;5019960;28;20208;-80
2024/01/10 02:21:24;;;;;;;33.08;19.10;;;-2.20;58.10;;;;;;5014655;28;20199;-80
2024/01/10 02:23:54;;;;;;;38.33;17.67;;;-2.20;58.10;;;;;;5011910;28;20228;-80
2024/01/10 02:26:23;;;;;;;33.80;16.70;;;-2.20;58.20;;;;;;5012609;28;20300;-80
2024/01/10 02:28:52;;;;;;;32.60;16.38;;;-2.20;58.30;;;;;;5028507;28;20532;-80
2024/01/10 02:31:27;;;;;;;37.13;18.00;;;-2.20;58.30;;;;;;5009355;28;20262;-80
2024/01/10 02:33:56;;;;;;;34.85;18.08;;;-2.20;58.40;;;;;;5015259;28;20826;-80
2024/01/10 02:36:32;;;;;;;29.98;17.00;;;-2.20;58.50;;;;;;5014455;28;20220;-78
2024/01/10 02:39:01;;;;;;;40.13;18.58;;;-2.20;58.60;;;;;;5006639;28;20201;-77
2024/01/10 02:41:33;;;;;;;35.67;16.38;;;-2.20;58.60;;;;;;5026120;28;20304;-80
2024/01/10 02:44:04;;;;;;;31.10;16.70;;;-2.20;58.70;;;;;;5022637;28;20234;-80
2024/01/10 02:46:32;;;;;;;34.80;18.50;;;-2.20;58.80;;;;;;5007135;28;20297;-80
2024/01/10 02:49:07;;;;;;;34.72;17.20;;;-2.20;58.80;;;;;;5010808;28;20205;-80
2024/01/10 02:51:37;;;;;;;32.92;17.90;;;-2.20;58.90;;;;;;5025253;28;22015;-80
2024/01/10 02:54:05;;;;;;;32.58;15.95;;;-2.20;59.10;;;;;;5005679;28;20217;-78
2024/01/10 02:56:35;;;;;;;32.75;17.90;;;-2.20;58.90;;;;;;5010412;28;20528;-80
2024/01/10 02:59:04;;;;;;;31.35;16.15;;;-2.20;59.10;;;;;;5026965;28;20225;-79
2024/01/10 03:01:32;;;;;;;35.22;19.10;;;-2.20;59.10;;;;;;5006471;28;20332;-79
2024/01/10 03:04:02;;;;;;;39.58;20.05;;;-2.20;58.90;;;;;;5010259;28;20229;-79
2024/01/10 03:06:32;;;;;;;40.28;18.35;;;-2.20;59.10;;;;;;5014175;28;20551;-79
2024/01/10 03:09:00;;;;;;;39.88;20.48;;;-2.30;59.10;;;;;;5008885;28;20210;-79
2024/01/10 03:11:28;;;;;;;42.47;22.45;;;-2.30;59.10;;;;;;5009438;28;20198;-79
2024/01/10 03:14:04;;;;;;;36.58;18.48;;;-2.40;59.20;;;;;;5007866;28;20206;-79
2024/01/10 03:16:32;;;;;;;42.13;18.65;;;-2.40;59.30;;;;;;5005233;28;20631;-79
2024/01/10 03:19:02;;;;;;;35.33;18.33;;;-2.40;59.30;;;;;;5007259;28;20214;-79
2024/01/10 03:21:29;;;;;;;33.78;17.73;;;-2.40;59.40;;;;;;5010623;28;20210;-80
2024/01/10 03:24:00;;;;;;;31.63;16.48;;;-2.40;59.40;;;;;;5016205;28;20210;-80
2024/01/10 03:26:30;;;;;;;30.27;16.08;;;-2.30;59.50;;;;;;5013108;28;20538;-80
2024/01/10 03:28:58;;;;;;;34.65;16.10;;;-2.30;59.50;;;;;;5019114;28;20205;-80
2024/01/10 03:31:30;;;;;;;31.73;17.92;;;-2.20;59.60;;;;;;5012086;28;20233;-78
2024/01/10 03:33:59;;;;;;;33.58;17.35;;;-2.20;59.60;;;;;;5004180;28;20801;-78
2024/01/10 03:36:30;;;;;;;34.13;15.70;;;-2.20;59.60;;;;;;5005541;28;20205;-78
2024/01/10 03:39:04;;;;;;;35.42;16.85;;;-2.10;59.70;;;;;;5007718;28;20289;-79
2024/01/10 03:41:33;;;;;;;29.85;15.43;;;-2.10;59.70;;;;;;5013928;28;20293;-79
2024/01/10 03:44:01;;;;;;;31.60;16.10;;;-2.10;59.70;;;;;;5008743;28;20802;-79
2024/01/10 03:46:32;;;;;;;31.13;16.10;;;-2.10;59.70;;;;;;5008059;28;20217;-78
2024/01/10 03:49:01;;;;;;;34.97;16.52;;;-2.00;59.70;;;;;;5014110;28;20626;-77
2024/01/10 03:51:31;;;;;;;30.35;15.20;;;-2.10;59.80;;;;;;5007592;28;20258;-78
2024/01/10 03:54:00;;;;;;;43.83;15.95;;;-2.00;59.80;;;;;;5022225;28;20212;-78
2024/01/10 03:56:29;;;;;;;31.23;15.13;;;-2.00;59.80;;;;;;5004761;28;20723;-78
2024/01/10 03:59:02;;;;;;;28.45;14.35;;;-2.00;59.80;;;;;;5005773;28;20238;-78
2024/01/10 04:01:32;;;;;;;36.03;15.88;;;-2.00;59.80;;;;;;5010150;28;20229;-79
2024/01/10 04:04:01;;;;;;;30.63;15.25;;;-2.00;59.90;;;;;;5010118;28;20202;-79
2024/01/10 04:06:29;;;;;;;30.05;15.82;;;-2.00;59.90;;;;;;5007766;28;20283;-80
2024/01/10 04:08:59;;;;;;;31.60;15.05;;;-2.00;59.90;;;;;;5018854;28;20206;-79
2024/01/10 04:11:29;;;;;;;30.67;17.15;;;-2.00;59.90;;;;;;5008489;28;20198;-79
2024/01/10 04:14:05;;;;;;;33.40;18.50;;;-2.10;59.90;;;;;;5012157;28;20212;-79
2024/01/10 04:16:35;;;;;;;33.25;16.85;;;-2.10;59.80;;;;;;5023472;28;20209;-79
2024/01/10 04:19:04;;;;;;;33.05;16.77;;;-2.20;59.70;;;;;;5021812;28;20210;-79
2024/01/10 04:21:32;;;;;;;30.27;16.75;;;-2.20;59.70;;;;;;5009282;28;20313;-80
2024/01/10 04:24:02;;;;;;;32.47;17.50;;;-2.30;59.70;;;;;;5010507;28;20224;-80
2024/01/10 04:26:43;;;;;;;35.13;17.70;;;-2.40;59.70;;;;;;5013683;28;20218;-80
2024/01/10 04:29:12;;;;;;;35.75;17.38;;;-2.40;59.90;;;;;;5012491;28;20208;-80
2024/01/10 04:31:42;;;;;;;33.65;17.88;;;-2.40;59.90;;;;;;5005966;28;20264;-81
2024/01/10 04:34:15;;;;;;;31.05;16.40;;;-2.40;59.90;;;;;;5012862;28;20210;-80
2024/01/10 04:36:44;;;;;;;30.70;16.33;;;-2.40;59.90;;;;;;5011619;28;20209;-81
2024/01/10 04:39:13;;;;;;;31.25;15.75;;;-2.50;59.90;;;;;;5009620;28;20659;-80
2024/01/10 04:41:44;;;;;;;31.38;15.55;;;-2.50;60.00;;;;;;5026482;28;20220;-80
2024/01/10 04:44:13;;;;;;;36.95;16.38;;;-2.40;60.00;;;;;;5017556;28;20205;-80
2024/01/10 04:46:47;;;;;;;36.20;16.52;;;-2.40;60.10;;;;;;5027851;28;20210;-80
2024/01/10 04:49:20;;;;;;;29.45;17.35;;;-2.40;60.10;;;;;;5010144;28;20222;-78
2024/01/10 04:51:51;;;;;;;37.80;19.35;;;-2.40;60.10;;;;;;5010752;28;20749;-80
2024/01/10 04:54:20;;;;;;;40.60;18.88;;;-2.40;60.10;;;;;;5009953;28;20209;-79
2024/01/10 04:56:49;;;;;;;51.42;25.30;;;-2.30;60.10;;;;;;5020838;28;20248;-79
2024/01/10 04:59:18;;;;;;;77.35;36.17;;;-2.30;60.10;;;;;;5014006;28;20201;-79
2024/01/10 05:01:49;;;;;;;91.20;40.72;;;-2.30;60.00;;;;;;5006368;28;20271;-80
2024/01/10 05:04:18;;;;;;;87.22;40.30;;;-2.40;60.10;;;;;;5031292;28;20213;-79
2024/01/10 05:06:47;;;;;;;75.25;36.15;;;-2.40;60.10;;;;;;5017184;28;20511;-79
2024/01/10 05:09:16;;;;;;;59.22;27.77;;;-2.30;60.20;;;;;;5010251;28;20242;-78
2024/01/10 05:11:47;;;;;;;50.90;26.40;;;-2.30;60.20;;;;;;5014656;28;20208;-79
2024/01/10 05:14:16;;;;;;;62.25;34.03;;;-2.30;60.10;;;;;;5014190;28;20226;-80
2024/01/10 05:16:48;;;;;;;56.70;30.75;;;-2.40;60.10;;;;;;5001715;28;20710;-80
2024/01/10 05:19:17;;;;;;;47.63;26.50;;;-2.40;60.10;;;;;;5017841;28;20212;-79
2024/01/10 05:21:46;;;;;;;44.00;23.08;;;-2.40;60.20;;;;;;5019798;28;20215;-79
2024/01/10 05:24:18;;;;;;;42.53;21.25;;;-2.40;60.20;;;;;;5012103;28;20194;-78
2024/01/10 05:26:53;;;;;;;43.65;23.73;;;-2.40;60.10;;;;;;5009921;28;20210;-80
2024/01/10 05:29:23;;;;;;;66.80;29.58;;;-2.40;60.20;;;;;;5014951;28;20236;-80
2024/01/10 05:31:54;;;;;;;51.30;24.88;;;-2.40;60.20;;;;;;5020767;28;20341;-80
2024/01/10 05:34:22;;;;;;;66.30;32.08;;;-2.40;60.20;;;;;;5015175;28;20209;-80
2024/01/10 05:36:53;;;;;;;60.58;27.75;;;-2.50;60.30;;;;;;5027831;28;20227;-80
2024/01/10 05:39:23;;;;;;;51.65;27.45;;;-2.50;60.30;;;;;;5011304;28;20694;-79
2024/01/10 05:41:52;;;;;;;53.03;25.98;;;-2.50;60.30;;;;;;5011093;28;20624;-79
2024/01/10 05:44:25;;;;;;;46.85;22.85;;;-2.50;60.30;;;;;;5017802;28;20208;-79
2024/01/10 05:46:59;;;;;;;44.97;21.55;;;-2.50;60.50;;;;;;5006681;28;20297;-79
2024/01/10 05:49:32;;;;;;;47.67;23.75;;;-2.50;60.50;;;;;;4998460;28;20211;-80
2024/01/10 05:52:09;;;;;;;47.67;25.10;;;-2.50;60.60;;;;;;5015803;28;20277;-80
2024/01/10 05:54:39;;;;;;;45.38;23.15;;;-2.50;60.60;;;;;;5011509;28;20678;-80
2024/01/10 05:57:07;;;;;;;36.60;20.42;;;-2.40;60.70;;;;;;5011903;28;20193;-80
2024/01/10 05:59:37;;;;;;;34.88;18.30;;;-2.40;60.70;;;;;;5027972;28;20724;-80
2024/01/10 06:02:07;;;;;;;33.05;18.20;;;-2.40;60.70;;;;;;5019601;28;20229;-80
2024/01/10 06:04:35;;;;;;;33.90;17.77;;;-2.40;60.80;;;;;;5011180;28;20191;-80
2024/01/10 06:07:06;;;;;;;34.67;16.80;;;-2.40;60.80;;;;;;5028179;28;20221;-79
2024/01/10 06:09:34;;;;;;;42.10;21.05;;;-2.40;60.80;;;;;;5016813;28;20215;-79
2024/01/10 06:12:04;;;;;;;46.33;25.77;;;-2.30;60.90;;;;;;5014668;28;20658;-79
2024/01/10 06:14:35;;;;;;;58.65;31.42;;;-2.40;60.80;;;;;;5010803;28;20249;-79
2024/01/10 06:17:08;;;;;;;56.75;28.27;;;-2.40;60.80;;;;;;5011575;28;20320;-79
2024/01/10 06:19:36;;;;;;;49.33;26.10;;;-2.40;60.90;;;;;;5027373;28;20228;-78
2024/01/10 06:22:06;;;;;;;46.35;21.80;;;-2.40;60.90;;;;;;5009481;28;20267;-79
2024/01/10 06:24:35;;;;;;;49.20;23.10;;;-2.40;60.90;;;;;;5011210;28;20217;-79
2024/01/10 06:27:06;;;;;;;45.67;22.60;;;-2.40;61.00;;;;;;5013981;28;20225;-79
2024/01/10 06:29:36;;;;;;;53.97;24.48;;;-2.40;60.90;;;;;;5011035;28;20214;-79
2024/01/10 06:32:09;;;;;;;53.35;26.58;;;-2.40;61.00;;;;;;5015059;28;20260;-80
2024/01/10 06:34:41;;;;;;;47.17;24.70;;;-2.30;61.00;;;;;;5027699;28;20229;-81
2024/01/10 06:37:15;;;;;;;38.80;20.35;;;-2.30;61.10;;;;;;5014859;28;20552;-81
2024/01/10 06:39:45;;;;;;;38.35;19.70;;;-2.30;61.10;;;;;;5022236;28;20243;-81
2024/01/10 06:42:13;;;;;;;38.55;18.77;;;-2.30;61.10;;;;;;5015800;28;20225;-79
2024/01/10 06:44:43;;;;;;;35.40;17.17;;;-2.20;61.10;;;;;;5008580;28;20285;-79
2024/01/10 06:47:14;;;;;;;31.33;16.65;;;-2.20;61.10;;;;;;5015772;28;20211;-79
2024/01/10 06:49:44;;;;;;;34.08;16.63;;;-2.20;61.10;;;;;;5018547;28;20209;-80
2024/01/10 06:52:12;;;;;;;31.02;16.13;;;-2.20;61.10;;;;;;5014851;28;20212;-80
2024/01/10 06:54:42;;;;;;;28.85;14.05;;;-2.20;61.20;;;;;;5017654;28;20235;-80
2024/01/10 06:57:11;;;;;;;31.95;15.95;;;-2.20;61.10;;;;;;5015001;28;20236;-78
2024/01/10 06:59:41;;;;;;;28.40;14.48;;;-2.20;61.10;;;;;;5011217;28;20210;-77
2024/01/10 07:02:12;;;;;;;27.52;14.40;;;-2.20;60.90;;;;;;5023655;28;20241;-77
2024/01/10 07:04:47;;;;;;;28.98;13.77;;;-2.20;60.80;;;;;;5009227;28;20268;-78
2024/01/10 07:07:17;;;;;;;31.50;15.73;;;-2.20;60.90;;;;;;5005615;28;20270;-77
2024/01/10 07:09:47;;;;;;;33.05;15.55;;;-2.20;60.80;;;;;;5001545;28;20205;-77
2024/01/10 07:12:15;;;;;;;36.10;17.77;;;-2.20;60.80;;;;;;5023004;28;20581;-77
2024/01/10 07:14:46;;;;;;;30.77;15.93;;;-2.30;60.60;;;;;;5012247;28;20229;-79
2024/01/10 07:17:15;;;;;;;32.65;17.58;;;-2.30;60.70;;;;;;5007649;28;20217;-78
2024/01/10 07:19:46;;;;;;;31.55;17.25;;;-2.30;60.70;;;;;;5008637;28;20213;-78
2024/01/10 07:22:14;;;;;;;39.53;20.80;;;-2.30;60.70;;;;;;5008736;28;20260;-78
2024/01/10 07:24:42;;;;;;;41.75;21.60;;;-2.40;60.70;;;;;;5003465;28;20209;-78
2024/01/10 07:27:12;;;;;;;36.00;18.92;;;-2.50;60.60;;;;;;5012592;28;20288;-78
2024/01/10 07:29:42;;;;;;;35.85;17.48;;;-2.60;60.60;;;;;;5004974;28;20205;-78
2024/01/10 07:32:11;;;;;;;26.38;15.63;;;-2.60;60.70;;;;;;5018676;28;20227;-78
2024/01/10 07:34:39;;;;;;;32.10;17.95;;;-2.70;60.70;;;;;;5017674;28;20249;-78
2024/01/10 07:37:10;;;;;;;29.55;17.13;;;-2.70;60.70;;;;;;5024747;28;20202;-78
2024/01/10 07:39:38;;;;;;;35.50;19.00;;;-2.70;60.70;;;;;;5016211;28;20229;-78
2024/01/10 07:42:07;;;;;;;42.58;22.25;;;-2.80;60.80;;;;;;5018553;28;20197;-78
2024/01/10 07:44:36;;;;;;;36.28;19.42;;;-2.80;60.80;;;;;;5007454;28;20229;-78
2024/01/10 07:47:05;;;;;;;48.88;25.70;;;-2.80;60.80;;;;;;5020105;28;20277;-78
2024/01/10 07:49:36;;;;;;;46.20;23.48;;;-2.80;60.90;;;;;;5006560;28;20634;-78
2024/01/10 07:52:05;;;;;;;47.55;23.15;;;-2.70;60.90;;;;;;5021984;28;20224;-78
2024/01/10 07:54:35;;;;;;;36.63;18.77;;;-2.70;60.90;;;;;;5001308;28;20337;-78
2024/01/10 07:57:06;;;;;;;38.47;20.27;;;-2.70;61.00;;;;;;5016870;28;20215;-78
2024/01/10 07:59:34;;;;;;;31.13;17.15;;;-2.70;61.00;;;;;;5014487;28;20202;-78
2024/01/10 08:02:02;;;;;;;35.55;16.00;;;-2.70;61.00;;;;;;5009387;28;20222;-79
2024/01/10 08:04:30;;;;;;;31.73;17.27;;;-2.70;61.00;;;;;;5004882;28;20245;-78
2024/01/10 08:06:58;;;;;;;30.05;17.42;;;-2.70;61.00;;;;;;5006657;28;20210;-78
2024/01/10 08:09:27;;;;;;;32.50;20.20;;;-2.60;61.00;;;;;;5009659;28;20214;-78
2024/01/10 08:11:57;;;;;;;36.00;18.73;;;-2.60;61.00;;;;;;5004861;28;20228;-78
2024/01/10 08:14:25;;;;;;;33.00;19.70;;;-2.60;61.10;;;;;;5002799;28;20224;-78
2024/01/10 08:16:54;;;;;;;30.85;19.58;;;-2.60;61.10;;;;;;5006983;28;20202;-78
2024/01/10 08:19:22;;;;;;;41.90;21.90;;;-2.60;61.10;;;;;;5000719;28;20257;-78
2024/01/10 08:21:51;;;;;;;43.45;24.17;;;-2.60;61.10;;;;;;5006382;28;20237;-78
2024/01/10 08:24:19;;;;;;;44.35;24.45;;;-2.50;61.10;;;;;;5005620;28;20278;-78
2024/01/10 08:26:49;;;;;;;42.10;23.42;;;-2.60;61.20;;;;;;5007179;28;20299;-78
2024/01/10 08:29:18;;;;;;;38.97;20.63;;;-2.60;61.20;;;;;;5003351;28;20233;-78
2024/01/10 08:31:46;;;;;;;41.60;20.30;;;-2.50;61.30;;;;;;5008629;28;20272;-78
2024/01/10 08:34:15;;;;;;;32.85;17.40;;;-2.50;61.40;;;;;;4999477;28;20218;-78
2024/01/10 08:36:43;;;;;;;32.10;18.27;;;-2.40;61.40;;;;;;5004877;28;20214;-78
2024/01/10 08:39:11;;;;;;;40.35;24.33;;;-2.40;61.40;;;;;;5003233;28;20213;-78
2024/01/10 08:41:44;;;;;;;38.42;23.33;;;-2.40;61.30;;;;;;5002198;28;20221;-78
2024/01/10 08:44:12;;;;;;;35.90;20.90;;;-2.30;61.40;;;;;;5001872;28;20670;-78
2024/01/10 08:46:41;;;;;;;35.65;19.65;;;-2.30;61.40;;;;;;5005032;28;20217;-78
2024/01/10 08:49:09;;;;;;;41.70;19.20;;;-2.30;61.50;;;;;;5001787;28;20201;-78
2024/01/10 08:51:37;;;;;;;41.97;21.42;;;-2.20;61.50;;;;;;5009948;28;20202;-78
2024/01/10 08:54:05;;;;;;;38.72;22.35;;;-2.20;61.60;;;;;;5017220;28;20229;-78
2024/01/10 08:56:34;;;;;;;34.45;17.40;;;-2.10;61.50;;;;;;5004159;28;20649;-78
2024/01/10 08:59:03;;;;;;;38.58;19.98;;;-2.10;61.60;;;;;;5002591;28;20217;-78
2024/01/10 09:01:33;;;;;;;35.83;16.15;;;-2.10;61.60;;;;;;5002949;28;20713;-78
2024/01/10 09:04:04;;;;;;;35.83;17.20;;;-2.10;61.60;;;;;;5008931;28;20222;-79
2024/01/10 09:06:33;;;;;;;28.33;15.65;;;-2.00;61.70;;;;;;5002300;28;20256;-78
2024/01/10 09:09:01;;;;;;;29.33;15.55;;;-2.00;61.70;;;;;;5001621;28;20213;-78
2024/01/10 09:11:29;;;;;;;30.67;16.10;;;-1.90;61.70;;;;;;5001628;28;20202;-78
2024/01/10 09:13:59;;;;;;;25.98;15.18;;;-1.90;61.60;;;;;;4999916;28;20302;-79
2024/01/10 09:16:28;;;;;;;29.70;14.30;;;-1.80;61.50;;;;;;5002912;28;20214;-78
2024/01/10 09:18:57;;;;;;;30.30;15.68;;;-1.80;61.40;;;;;;5003112;28;20222;-78
2024/01/10 09:21:27;;;;;;;28.65;15.35;;;-1.80;61.40;;;;;;5002630;28;20221;-78
2024/01/10 09:23:55;;;;;;;24.17;13.57;;;-1.70;61.40;;;;;;5004843;28;20241;-78
2024/01/10 09:26:24;;;;;;;25.67;15.80;;;-1.70;61.30;;;;;;5006230;28;20210;-78
2024/01/10 09:28:52;;;;;;;32.63;17.27;;;-1.60;61.30;;;;;;5008048;28;20646;-78
2024/01/10 09:31:20;;;;;;;30.08;16.60;;;-1.60;61.30;;;;;;5022183;28;20565;-78
2024/01/10 09:33:48;;;;;;;29.33;15.93;;;-1.60;61.30;;;;;;4966648;28;1040638;-78
2024/01/10 09:36:16;;;;;;;28.23;16.20;;;-1.50;61.30;;;;;;5008291;28;20316;-78
2024/01/10 09:38:45;;;;;;;27.90;14.90;;;-1.50;61.30;;;;;;5022724;28;20305;-78
2024/01/10 09:41:16;;;;;;;32.47;15.38;;;-1.50;61.20;;;;;;5002792;28;20568;-78
2024/01/10 09:43:45;;;;;;;31.00;14.65;;;-1.50;61.20;;;;;;5008790;28;20300;-78
2024/01/10 09:46:15;;;;;;;26.00;14.45;;;-1.40;61.20;;;;;;5005246;28;20233;-78
2024/01/10 09:48:44;;;;;;;29.65;14.68;;;-1.40;61.20;;;;;;5005418;28;20229;-78
2024/01/10 09:51:13;;;;;;;28.67;16.05;;;-1.30;61.20;;;;;;5009104;28;20285;-78
2024/01/10 09:53:49;;;;;;;30.90;15.43;;;-1.30;61.20;;;;;;5010374;28;20696;-78
2024/01/10 09:56:18;;;;;;;34.10;17.65;;;-1.30;61.20;;;;;;5010183;28;20304;-78
2024/01/10 09:58:49;;;;;;;40.47;19.90;;;-1.30;61.00;;;;;;5007749;28;20214;-78
2024/01/10 10:01:17;;;;;;;32.35;17.15;;;-1.20;61.00;;;;;;5008715;28;20291;-78
2024/01/10 10:03:47;;;;;;;42.08;20.80;;;-1.20;61.00;;;;;;5010319;28;20233;-78
2024/01/10 10:06:15;;;;;;;50.83;22.80;;;-1.20;61.10;;;;;;5007364;28;20201;-78
2024/01/10 10:08:43;;;;;;;46.95;23.25;;;-1.20;61.10;;;;;;5007603;28;20209;-78
2024/01/10 10:11:14;;;;;;;29.45;16.80;;;-1.10;61.10;;;;;;5006057;28;20216;-78
2024/01/10 10:13:45;;;;;;;34.00;17.50;;;-1.10;61.10;;;;;;5007046;28;20264;-78
2024/01/10 10:16:13;;;;;;;44.05;20.42;;;-1.10;61.10;;;;;;5007344;28;20972;-78
2024/01/10 10:18:42;;;;;;;47.47;21.33;;;-1.10;61.00;;;;;;5011361;28;20220;-78
2024/01/10 10:21:12;;;;;;;34.00;16.00;;;-1.00;61.00;;;;;;5018142;28;20206;-78
2024/01/10 10:23:42;;;;;;;42.72;19.00;;;-1.00;61.00;;;;;;5021496;28;20357;-78
2024/01/10 10:26:13;;;;;;;47.60;19.92;;;-1.00;61.00;;;;;;5023634;28;22111;-79
2024/01/10 10:28:43;;;;;;;48.92;21.95;;;-1.00;61.00;;;;;;5008678;28;20210;-78
2024/01/10 10:31:12;;;;;;;33.03;15.93;;;-0.90;60.90;;;;;;5008209;28;20195;-78
2024/01/10 10:33:40;;;;;;;42.83;20.83;;;-1.00;60.90;;;;;;5023148;28;20218;-78
2024/01/10 10:36:08;;;;;;;37.78;17.52;;;-0.90;60.90;;;;;;5006868;28;20309;-78
2024/01/10 10:38:37;;;;;;;41.58;18.20;;;-0.90;61.00;;;;;;5009117;28;20221;-78
2024/01/10 10:41:10;;;;;;;31.35;16.45;;;-0.80;61.00;;;;;;5010863;28;20202;-78
2024/01/10 10:43:40;;;;;;;27.58;16.20;;;-0.70;61.00;;;;;;5020521;28;20210;-78
2024/01/10 10:46:12;;;;;;;34.13;16.88;;;-0.60;61.00;;;;;;5008608;28;20324;-78
2024/01/10 10:48:40;;;;;;;26.45;14.13;;;-0.60;60.90;;;;;;5005717;28;20287;-78
2024/01/10 10:51:10;;;;;;;31.70;15.95;;;-0.50;60.80;;;;;;5008210;28;20212;-78
2024/01/10 10:53:40;;;;;;;37.30;18.88;;;-0.50;60.80;;;;;;5024095;28;20655;-78
2024/01/10 10:56:09;;;;;;;43.42;21.65;;;-0.40;60.80;;;;;;5010059;28;20236;-78
2024/01/10 10:58:40;;;;;;;41.90;21.25;;;-0.40;60.80;;;;;;5008281;28;20210;-78
2024/01/10 11:01:13;;;;;;;43.53;26.05;;;-0.40;60.70;;;;;;5006427;28;20752;-78
2024/01/10 11:03:44;;;;;;;48.80;24.98;;;-0.30;60.80;;;;;;5008476;28;20243;-78
2024/01/10 11:06:12;;;;;;;35.65;19.10;;;-0.30;60.70;;;;;;5004366;28;20647;-78
2024/01/10 11:08:45;;;;;;;34.00;19.25;;;-0.30;60.70;;;;;;5009462;28;20215;-78
2024/01/10 11:11:23;;;;;;;31.25;17.58;;;-0.30;60.80;;;;;;5009344;28;20759;-78
2024/01/10 11:14:10;;;;;;;36.33;16.67;;;-0.30;60.80;;;;;;5003761;28;20222;-78
2024/01/10 11:16:59;;;;;;;34.90;17.67;;;-0.20;60.80;;;;;;5007475;28;20225;-79
2024/01/10 11:19:55;;;;;;;34.00;18.75;;;-0.20;60.80;;;;;;5003306;28;20195;-78
2024/01/10 11:22:40;;;;;;;31.73;17.83;;;-0.20;60.70;;;;;;5007872;28;20227;-78
2024/01/10 11:25:09;;;;;;;34.92;18.17;;;-0.20;60.80;;;;;;5013875;28;20241;-78
2024/01/10 11:27:38;;;;;;;29.80;17.50;;;-0.20;60.80;;;;;;5008947;28;20216;-78
2024/01/10 11:30:07;;;;;;;35.50;20.67;;;-0.20;60.80;;;;;;5009922;28;20281;-80
2024/01/10 11:32:38;;;;;;;30.20;17.45;;;-0.20;60.80;;;;;;5004796;28;20253;-78
2024/01/10 11:35:13;;;;;;;30.60;16.85;;;-0.20;60.90;;;;;;5009439;28;20237;-78
2024/01/10 11:37:44;;;;;;;38.58;19.45;;;-0.20;60.90;;;;;;5008075;28;20305;-78
2024/01/10 11:40:15;;;;;;;31.45;17.65;;;-0.20;61.00;;;;;;5011056;28;20210;-78
2024/01/10 11:42:48;;;;;;;41.67;20.25;;;-0.10;61.00;;;;;;5007608;28;20225;-78
2024/01/10 11:45:37;;;;;;;39.10;21.83;;;-0.10;61.00;;;;;;5004371;28;20288;-78
2024/01/10 11:48:10;;;;;;;35.17;18.58;;;-0.10;61.00;;;;;;5001215;28;20285;-78
2024/01/10 11:50:45;;;;;;;34.70;18.42;;;-0.10;61.00;;;;;;5004312;28;20245;-78
2024/01/10 11:53:39;;;;;;;42.65;22.23;;;-0.10;61.10;;;;;;5011295;28;20263;-78
2024/01/10 11:56:12;;;;;;;37.78;18.83;;;-0.10;61.20;;;;;;5007017;28;20646;-78
2024/01/10 11:58:56;;;;;;;29.77;17.00;;;-0.10;61.20;;;;;;5006807;28;20213;-78
2024/01/10 12:01:28;;;;;;;32.83;16.67;;;0.00;61.30;;;;;;5003773;28;20550;-78
2024/01/10 12:04:00;;;;;;;34.72;19.58;;;0.00;61.30;;;;;;5007680;28;20545;-78
2024/01/10 12:06:46;;;;;;;33.97;17.40;;;0.10;61.30;;;;;;5005530;28;20542;-78
2024/01/10 12:09:17;;;;;;;32.50;17.65;;;0.10;61.30;;;;;;5008393;28;20209;-77
2024/01/10 12:11:46;;;;;;;31.92;17.55;;;0.10;61.20;;;;;;5005144;28;20205;-78
2024/01/10 12:14:14;;;;;;;30.10;16.00;;;0.10;61.20;;;;;;5002175;28;20243;-78
2024/01/10 12:16:42;;;;;;;28.10;16.67;;;0.10;61.20;;;;;;5003969;28;20218;-78
2024/01/10 12:19:12;;;;;;;33.33;19.38;;;0.20;61.20;;;;;;5004015;28;20218;-78
2024/01/10 12:21:40;;;;;;;30.55;17.95;;;0.20;61.20;;;;;;5006660;28;20220;-78
2024/01/10 12:24:09;;;;;;;34.85;17.95;;;0.20;61.30;;;;;;5006597;28;20209;-78
2024/01/10 12:26:44;;;;;;;34.72;18.20;;;0.20;61.30;;;;;;5011295;28;20209;-78
2024/01/10 12:29:12;;;;;;;29.85;17.50;;;0.20;61.30;;;;;;5006696;28;20300;-78
2024/01/10 12:31:41;;;;;;;40.38;20.92;;;0.20;61.30;;;;;;5008245;28;20256;-78
2024/01/10 12:34:10;;;;;;;36.33;18.15;;;0.20;61.30;;;;;;5005495;28;20218;-78
2024/01/10 12:36:40;;;;;;;33.85;18.10;;;0.20;61.30;;;;;;5006287;28;20237;-79
2024/01/10 12:39:10;;;;;;;41.00;21.42;;;0.20;61.40;;;;;;5007036;28;20269;-78
2024/01/10 12:41:39;;;;;;;40.53;21.73;;;0.20;61.40;;;;;;5006238;28;20202;-78
2024/01/10 12:44:08;;;;;;;46.20;24.25;;;0.30;61.30;;;;;;5007784;28;20509;-78